createdAt,value
2023-04-20T00:02:09.633Z,8.20
2023-04-20T00:04:36.608Z,8.20
2023-04-20T00:07:04.441Z,8.20
2023-04-20T00:09:32.043Z,8.10
2023-04-20T00:11:58.699Z,8.20
2023-04-20T00:14:25.353Z,8.30
2023-04-20T00:16:52.019Z,8.20
2023-04-20T00:19:18.760Z,8.10
2023-04-20T00:21:46.292Z,8.20
2023-04-20T00:24:12.928Z,8.20
2023-04-20T00:26:39.572Z,8.10
2023-04-20T00:29:06.379Z,8.10
2023-04-20T00:31:33.133Z,8.10
2023-04-20T00:33:59.780Z,8.10
2023-04-20T00:36:27.116Z,8.10
2023-04-20T00:38:53.716Z,8.20
2023-04-20T00:41:21.245Z,7.90
2023-04-20T00:43:54.455Z,8.00
2023-04-20T00:46:21.933Z,8.00
2023-04-20T00:48:51.797Z,7.90
2023-04-20T00:51:19.532Z,7.80
2023-04-20T00:53:46.368Z,7.70
2023-04-20T00:56:14.099Z,7.60
2023-04-20T00:58:43.248Z,7.60
2023-04-20T01:01:11.549Z,7.50
2023-04-20T01:03:39.982Z,7.60
2023-04-20T01:06:08.324Z,7.60
2023-04-20T01:08:34.985Z,7.60
2023-04-20T01:11:01.602Z,7.50
2023-04-20T01:13:28.209Z,7.60
2023-04-20T01:16:00.090Z,7.50
2023-04-20T01:18:26.987Z,7.50
2023-04-20T01:20:53.576Z,7.50
2023-04-20T01:23:20.278Z,7.60
2023-04-20T01:25:46.921Z,7.60
2023-04-20T01:28:14.363Z,7.60
2023-04-20T01:30:41.264Z,7.60
2023-04-20T01:33:08.015Z,7.50
2023-04-20T01:35:34.696Z,7.60
2023-04-20T01:38:01.312Z,7.50
2023-04-20T01:40:28.002Z,7.60
2023-04-20T01:42:54.571Z,7.60
2023-04-20T01:45:21.190Z,7.50
2023-04-20T01:47:47.915Z,7.50
2023-04-20T01:50:14.544Z,7.50
2023-04-20T01:52:41.221Z,7.50
2023-04-20T01:55:08.842Z,7.50
2023-04-20T01:57:36.203Z,7.50
2023-04-20T02:00:04.112Z,7.40
2023-04-20T02:02:30.889Z,7.50
2023-04-20T02:04:57.567Z,7.50
2023-04-20T02:07:24.226Z,7.50
2023-04-20T02:09:50.849Z,7.60
2023-04-20T02:12:17.430Z,7.60
2023-04-20T02:14:44.101Z,7.60
2023-04-20T02:17:11.473Z,7.50
2023-04-20T02:19:38.149Z,7.50
2023-04-20T02:22:04.788Z,7.60
2023-04-20T02:24:31.419Z,7.40
2023-04-20T02:26:58.581Z,7.50
2023-04-20T02:29:25.612Z,7.40
2023-04-20T02:31:52.195Z,7.30
2023-04-20T02:34:18.765Z,7.40
2023-04-20T02:36:45.404Z,7.40
2023-04-20T02:39:12.101Z,7.50
2023-04-20T02:41:38.727Z,7.50
2023-04-20T02:44:05.542Z,7.40
2023-04-20T02:46:32.243Z,7.40
2023-04-20T02:48:58.925Z,7.30
2023-04-20T02:51:25.504Z,7.20
2023-04-20T02:53:52.193Z,7.30
2023-04-20T02:56:19.010Z,7.20
2023-04-20T02:58:48.143Z,7.20
2023-04-20T03:01:15.883Z,7.20
2023-04-20T03:03:42.672Z,7.30
2023-04-20T03:06:09.324Z,7.40
2023-04-20T03:08:36.325Z,7.40
2023-04-20T03:11:02.915Z,7.50
2023-04-20T03:13:29.487Z,7.40
2023-04-20T03:15:56.159Z,7.50
2023-04-20T03:18:22.784Z,7.60
2023-04-20T03:20:49.366Z,7.60
2023-04-20T03:23:16.005Z,7.70
2023-04-20T03:25:43.559Z,7.80
2023-04-20T03:28:10.257Z,7.80
2023-04-20T03:30:36.899Z,7.80
2023-04-20T03:33:03.614Z,7.80
2023-04-20T03:35:30.294Z,7.90
2023-04-20T03:37:56.916Z,7.90
2023-04-20T03:40:23.646Z,8.00
2023-04-20T03:42:50.606Z,8.00
2023-04-20T03:45:17.406Z,8.00
2023-04-20T03:47:44.166Z,7.90
2023-04-20T03:50:11.097Z,8.00
2023-04-20T03:52:37.759Z,8.00
2023-04-20T03:55:04.802Z,8.10
2023-04-20T03:57:31.456Z,8.10
2023-04-20T03:59:58.089Z,8.20
2023-04-20T04:02:24.832Z,8.20
2023-04-20T04:04:51.705Z,8.30
2023-04-20T04:07:18.424Z,8.20
2023-04-20T04:09:45.024Z,8.10
2023-04-20T04:12:11.624Z,8.20
2023-04-20T04:14:38.318Z,8.20
2023-04-20T04:17:04.933Z,8.20
2023-04-20T04:19:31.688Z,8.20
2023-04-20T04:21:58.263Z,8.20
2023-04-20T04:24:24.959Z,8.00
2023-04-20T04:26:52.110Z,8.00
2023-04-20T04:29:19.308Z,8.10
2023-04-20T04:31:46.206Z,8.10
2023-04-20T04:34:13.611Z,8.10
2023-04-20T04:36:40.223Z,8.20
2023-04-20T04:39:06.919Z,8.20
2023-04-20T04:41:33.870Z,8.20
2023-04-20T04:44:01.271Z,8.20
2023-04-20T04:46:28.729Z,8.20
2023-04-20T04:48:56.461Z,8.20
2023-04-20T04:51:23.090Z,8.20
2023-04-20T04:53:49.923Z,8.20
2023-04-20T04:56:20.420Z,8.20
2023-04-20T04:58:47.125Z,8.20
2023-04-20T05:01:14.092Z,8.20
2023-04-20T05:03:40.954Z,8.20
2023-04-20T05:06:07.737Z,8.20
2023-04-20T05:08:34.804Z,8.20
2023-04-20T05:11:01.506Z,8.20
2023-04-20T05:13:28.185Z,8.20
2023-04-20T05:15:54.856Z,8.20
2023-04-20T05:18:21.727Z,8.20
2023-04-20T05:20:48.443Z,8.20
2023-04-20T05:23:15.260Z,8.20
2023-04-20T05:25:42.281Z,8.10
2023-04-20T05:28:08.926Z,8.10
2023-04-20T05:30:35.566Z,8.20
2023-04-20T05:33:02.167Z,8.20
2023-04-20T05:35:28.780Z,8.20
2023-04-20T05:37:55.591Z,8.10
2023-04-20T05:40:22.307Z,8.10
2023-04-20T05:42:48.951Z,8.00
2023-04-20T05:45:15.684Z,8.00
2023-04-20T05:47:42.409Z,8.10
2023-04-20T05:50:09.729Z,8.00
2023-04-20T05:52:36.433Z,8.10
2023-04-20T05:55:03.647Z,8.00
2023-04-20T05:57:30.806Z,8.10
2023-04-20T05:59:57.463Z,8.10
2023-04-20T06:02:24.209Z,8.10
2023-04-20T06:04:51.340Z,8.00
2023-04-20T06:07:18.067Z,8.00
2023-04-20T06:09:44.828Z,7.80
2023-04-20T06:12:11.509Z,7.80
2023-04-20T06:14:38.138Z,7.70
2023-04-20T06:17:04.731Z,7.60
2023-04-20T06:19:31.736Z,7.70
2023-04-20T06:22:00.649Z,7.70
2023-04-20T06:24:27.835Z,7.60
2023-04-20T06:26:54.786Z,7.60
2023-04-20T06:29:21.459Z,7.60
2023-04-20T06:31:48.115Z,7.60
2023-04-20T06:34:14.980Z,7.50
2023-04-20T06:36:44.583Z,7.50
2023-04-20T06:39:11.496Z,7.30
2023-04-20T06:41:39.042Z,7.40
2023-04-20T06:44:06.079Z,7.40
2023-04-20T06:46:32.898Z,7.50
2023-04-20T06:48:59.534Z,7.40
2023-04-20T06:51:27.731Z,7.50
2023-04-20T06:53:54.587Z,7.50
2023-04-20T06:56:21.651Z,7.40
2023-04-20T06:58:48.853Z,7.40
2023-04-20T07:01:15.648Z,7.40
2023-04-20T07:03:42.912Z,7.40
2023-04-20T07:06:11.281Z,7.40
2023-04-20T07:08:39.446Z,7.50
2023-04-20T07:11:06.198Z,7.50
2023-04-20T07:13:33.850Z,7.50
2023-04-20T07:16:00.747Z,7.50
2023-04-20T07:18:27.405Z,7.50
2023-04-20T07:20:54.417Z,7.40
2023-04-20T07:23:21.301Z,7.40
2023-04-20T07:25:48.182Z,7.50
2023-04-20T07:28:14.829Z,7.50
2023-04-20T07:30:41.498Z,7.50
2023-04-20T07:33:09.130Z,7.60
2023-04-20T07:35:35.912Z,7.60
2023-04-20T07:38:02.742Z,7.60
2023-04-20T07:40:29.494Z,7.60
2023-04-20T07:42:56.043Z,7.60
2023-04-20T07:45:24.080Z,7.60
2023-04-20T07:47:52.241Z,7.60
2023-04-20T07:50:18.919Z,7.60
2023-04-20T07:52:45.568Z,7.60
2023-04-20T07:55:14.005Z,7.60
2023-04-20T07:57:41.523Z,7.60
2023-04-20T08:00:09.759Z,7.70
2023-04-20T08:02:36.565Z,7.70
2023-04-20T08:05:03.982Z,7.60
2023-04-20T08:07:31.005Z,7.60
2023-04-20T08:09:57.768Z,7.60
2023-04-20T08:12:24.370Z,7.50
2023-04-20T08:14:51.867Z,7.50
2023-04-20T08:17:18.548Z,7.30
2023-04-20T08:19:46.107Z,7.30
2023-04-20T08:22:13.048Z,7.20
2023-04-20T08:24:39.690Z,7.20
2023-04-20T08:27:08.629Z,7.00
2023-04-20T08:29:36.588Z,6.90
2023-04-20T08:32:03.783Z,6.90
2023-04-20T08:34:30.646Z,6.90
2023-04-20T08:36:57.244Z,6.80
2023-04-20T08:39:24.201Z,6.80
2023-04-20T08:41:55.367Z,6.90
2023-04-20T08:44:22.958Z,7.00
2023-04-20T08:46:50.624Z,6.90
2023-04-20T08:49:19.560Z,7.00
2023-04-20T08:51:47.863Z,6.90
2023-04-20T08:54:15.031Z,6.80
2023-04-20T08:56:44.281Z,6.70
2023-04-20T08:59:12.813Z,6.80
2023-04-20T09:01:41.576Z,6.70
2023-04-20T09:04:23.137Z,6.80
2023-04-20T09:06:52.177Z,6.90
2023-04-20T09:09:20.144Z,7.00
2023-04-20T09:11:47.547Z,6.90
2023-04-20T09:14:16.956Z,7.00
2023-04-20T09:16:52.278Z,7.00
2023-04-20T09:19:26.414Z,7.10
2023-04-20T09:21:55.919Z,7.20
2023-04-20T09:24:24.491Z,7.30
2023-04-20T09:26:51.152Z,7.30
2023-04-20T09:29:23.279Z,7.30
2023-04-20T09:31:50.752Z,7.40
2023-04-20T09:34:18.337Z,7.50
2023-04-20T09:36:46.894Z,7.50
2023-04-20T09:39:18.456Z,7.40
2023-04-20T09:41:45.583Z,7.30
2023-04-20T09:44:13.201Z,7.50
2023-04-20T09:46:41.373Z,7.40
2023-04-20T09:49:13.920Z,7.50
2023-04-20T09:51:45.160Z,7.50
2023-04-20T09:54:13.075Z,7.30
2023-04-20T09:56:40.143Z,7.40
2023-04-20T09:59:07.836Z,7.40
2023-04-20T10:01:36.297Z,7.40
2023-04-20T10:04:07.387Z,7.30
2023-04-20T10:06:35.863Z,7.40
2023-04-20T10:09:05.435Z,7.40
2023-04-20T10:11:52.253Z,7.40
2023-04-20T10:14:23.682Z,7.40
2023-04-20T10:17:08.708Z,7.50
2023-04-20T10:19:42.809Z,7.50
2023-04-20T10:22:11.483Z,7.50
2023-04-20T10:24:38.488Z,7.50
2023-04-20T10:27:19.209Z,7.60
2023-04-20T10:29:46.559Z,7.60
2023-04-20T10:32:27.276Z,7.60
2023-04-20T10:35:06.683Z,7.70
2023-04-20T10:37:33.952Z,7.70
2023-04-20T10:40:02.876Z,7.70
2023-04-20T10:42:29.823Z,7.70
2023-04-20T10:44:56.506Z,7.70
2023-04-20T10:47:34.666Z,7.70
2023-04-20T10:50:08.358Z,7.70
2023-04-20T10:52:37.045Z,7.80
2023-04-20T10:55:04.870Z,7.80
2023-04-20T10:57:31.747Z,7.80
2023-04-20T10:59:58.393Z,7.80
2023-04-20T11:02:25.587Z,7.80
2023-04-20T11:04:53.296Z,7.70
2023-04-20T11:07:20.885Z,7.80
2023-04-20T11:09:54.946Z,7.80
2023-04-20T11:12:21.621Z,7.70
2023-04-20T11:14:55.897Z,7.80
2023-04-20T11:17:36.352Z,7.90
2023-04-20T11:20:15.371Z,7.90
2023-04-20T11:22:43.304Z,7.90
2023-04-20T11:25:11.851Z,7.80
2023-04-20T11:27:39.469Z,7.90
2023-04-20T11:30:07.697Z,7.90
2023-04-20T11:32:35.396Z,7.90
2023-04-20T11:35:07.967Z,7.90
2023-04-20T11:37:53.511Z,7.90
2023-04-20T11:40:20.477Z,8.00
2023-04-20T11:42:47.173Z,8.00
2023-04-20T11:45:13.796Z,7.90
2023-04-20T11:47:40.896Z,8.00
2023-04-20T11:50:09.180Z,8.10
2023-04-20T11:52:36.248Z,8.10
2023-04-20T11:55:02.944Z,8.10
2023-04-20T11:57:29.591Z,8.00
2023-04-20T11:59:56.285Z,8.00
2023-04-20T12:02:23.326Z,8.10
2023-04-20T12:04:50.461Z,8.10
2023-04-20T12:07:17.167Z,8.10
2023-04-20T12:09:44.383Z,8.20
2023-04-20T12:12:11.054Z,8.20
2023-04-20T12:14:37.682Z,8.20
2023-04-20T12:17:04.742Z,8.20
2023-04-20T12:19:32.013Z,8.20
2023-04-20T12:21:58.739Z,8.20
2023-04-20T12:24:25.368Z,8.30
2023-04-20T12:26:51.985Z,8.30
2023-04-20T12:29:18.774Z,8.40
2023-04-20T12:31:45.571Z,8.40
2023-04-20T12:34:12.579Z,8.40
2023-04-20T12:36:39.187Z,8.40
2023-04-20T12:39:05.841Z,8.40
2023-04-20T12:41:33.364Z,8.40
2023-04-20T12:44:01.565Z,8.50
2023-04-20T12:46:29.405Z,8.50
2023-04-20T12:48:56.209Z,8.50
2023-04-20T12:51:22.832Z,8.50
2023-04-20T12:53:49.426Z,8.50
2023-04-20T12:56:16.079Z,8.60
2023-04-20T12:58:44.269Z,8.60
2023-04-20T13:01:11.076Z,8.50
2023-04-20T13:03:37.900Z,8.50
2023-04-20T13:06:05.862Z,8.50
2023-04-20T13:08:32.525Z,8.50
2023-04-20T13:10:59.210Z,8.40
2023-04-20T13:13:25.899Z,8.50
2023-04-20T13:15:54.475Z,8.40
2023-04-20T13:18:21.826Z,8.40
2023-04-20T13:20:48.801Z,8.50
2023-04-20T13:23:15.608Z,8.50
2023-04-20T13:25:42.348Z,8.40
2023-04-20T13:28:08.947Z,8.40
2023-04-20T13:30:35.680Z,8.40
2023-04-20T13:33:02.336Z,8.30
2023-04-20T13:35:29.145Z,8.30
2023-04-20T13:37:56.161Z,8.30
2023-04-20T13:40:22.795Z,8.30
2023-04-20T13:42:49.670Z,8.30
2023-04-20T13:45:16.337Z,8.40
2023-04-20T13:47:43.228Z,8.40
2023-04-20T13:50:10.462Z,8.50
2023-04-20T13:52:37.198Z,8.50
2023-04-20T13:55:05.092Z,8.50
2023-04-20T13:57:31.778Z,8.50
2023-04-20T14:00:01.306Z,8.60
2023-04-20T14:02:29.023Z,8.50
2023-04-20T14:04:56.366Z,8.50
2023-04-20T14:07:23.080Z,8.50
2023-04-20T14:09:50.349Z,8.50
2023-04-20T14:12:17.008Z,8.60
2023-04-20T14:14:43.629Z,8.60
2023-04-20T14:17:11.457Z,8.60
2023-04-20T14:19:38.105Z,8.60
2023-04-20T14:22:04.739Z,8.60
2023-04-20T14:24:31.396Z,8.60
2023-04-20T14:26:59.768Z,8.60
2023-04-20T14:29:26.356Z,8.60
2023-04-20T14:31:53.066Z,8.60
2023-04-20T14:34:20.026Z,8.70
2023-04-20T14:36:46.849Z,8.70
2023-04-20T14:39:13.457Z,8.60
2023-04-20T14:41:40.126Z,8.60
2023-04-20T14:44:07.447Z,8.60
2023-04-20T14:46:34.326Z,8.70
2023-04-20T14:49:01.187Z,8.70
2023-04-20T14:51:29.349Z,8.70
2023-04-20T14:53:55.958Z,8.70
2023-04-20T14:56:22.582Z,8.70
2023-04-20T14:58:49.394Z,8.70
2023-04-20T15:01:17.027Z,8.80
2023-04-20T15:03:43.931Z,8.80
2023-04-20T15:06:11.567Z,8.80
2023-04-20T15:08:38.412Z,8.70
2023-04-20T15:11:05.643Z,8.70
2023-04-20T15:13:35.659Z,8.70
2023-04-20T15:16:02.350Z,8.60
2023-04-20T15:18:29.038Z,8.60
2023-04-20T15:20:55.795Z,8.60
2023-04-20T15:23:22.975Z,8.50
2023-04-20T15:25:49.776Z,8.40
2023-04-20T15:28:16.577Z,8.40
2023-04-20T15:30:43.304Z,8.40
2023-04-20T15:33:10.906Z,8.40
2023-04-20T15:35:37.539Z,8.40
2023-04-20T15:38:04.181Z,8.40
2023-04-20T15:40:30.836Z,8.40
2023-04-20T15:42:57.468Z,8.50
2023-04-20T15:45:25.082Z,8.50
2023-04-20T15:47:51.921Z,8.60
2023-04-20T15:50:18.677Z,8.50
2023-04-20T15:52:45.761Z,8.50
2023-04-20T15:55:12.509Z,8.50
2023-04-20T15:57:39.232Z,8.60
2023-04-20T16:00:07.652Z,8.60
2023-04-20T16:02:34.534Z,8.70
2023-04-20T16:05:02.763Z,8.60
2023-04-20T16:07:29.862Z,8.70
2023-04-20T16:09:56.545Z,8.60
2023-04-20T16:12:23.189Z,8.60
2023-04-20T16:14:51.756Z,8.50
2023-04-20T16:17:22.758Z,8.60
2023-04-20T16:19:49.745Z,8.60
2023-04-20T16:22:16.536Z,8.60
2023-04-20T16:24:43.238Z,8.60
2023-04-20T16:27:09.884Z,8.70
2023-04-20T16:29:36.618Z,8.60
2023-04-20T16:32:03.256Z,8.70
2023-04-20T16:34:31.564Z,8.60
2023-04-20T16:36:58.554Z,8.70
2023-04-20T16:39:26.143Z,8.70
2023-04-20T16:41:52.762Z,8.80
2023-04-20T16:44:19.498Z,8.90
2023-04-20T16:46:51.731Z,8.90
2023-04-20T16:49:18.634Z,8.90
2023-04-20T16:51:45.246Z,8.90
2023-04-20T16:54:12.761Z,9.00
2023-04-20T16:56:40.037Z,9.00
2023-04-20T16:59:06.892Z,9.10
2023-04-20T17:01:33.702Z,9.10
2023-04-20T17:04:00.934Z,9.10
2023-04-20T17:06:27.718Z,9.20
2023-04-20T17:08:57.479Z,9.10
2023-04-20T17:11:24.134Z,9.10
2023-04-20T17:13:50.818Z,9.20
2023-04-20T17:16:17.530Z,9.20
2023-04-20T17:18:44.155Z,9.20
2023-04-20T17:21:10.772Z,9.20
2023-04-20T17:23:37.364Z,9.20
2023-04-20T17:26:04.011Z,9.10
2023-04-20T17:28:30.609Z,9.20
2023-04-20T17:30:57.227Z,9.20
2023-04-20T17:33:23.955Z,9.20
2023-04-20T17:35:50.515Z,9.10
2023-04-20T17:38:17.088Z,9.10
2023-04-20T17:40:43.728Z,9.00
2023-04-20T17:43:10.333Z,9.00
2023-04-20T17:45:37.079Z,9.00
2023-04-20T17:48:03.995Z,8.90
2023-04-20T17:50:30.722Z,8.80
2023-04-20T17:52:57.339Z,8.80
2023-04-20T17:55:24.080Z,8.70
2023-04-20T17:57:50.832Z,8.70
2023-04-20T18:00:18.543Z,8.70
2023-04-20T18:02:45.327Z,8.70
2023-04-20T18:05:12.036Z,8.70
2023-04-20T18:07:38.770Z,8.70
2023-04-20T18:10:05.952Z,8.70
2023-04-20T18:12:33.509Z,8.80
2023-04-20T18:15:00.684Z,8.80
2023-04-20T18:17:27.396Z,8.70
2023-04-20T18:19:54.018Z,8.70
2023-04-20T18:22:20.768Z,8.70
2023-04-20T18:24:47.341Z,8.60
2023-04-20T18:27:14.102Z,8.40
2023-04-20T18:29:40.730Z,8.40
2023-04-20T18:32:07.334Z,8.30
2023-04-20T18:34:34.166Z,8.20
2023-04-20T18:37:00.858Z,8.20
2023-04-20T18:39:27.576Z,8.20
2023-04-20T18:41:54.186Z,8.30
2023-04-20T18:44:21.226Z,8.20
2023-04-20T18:46:49.889Z,8.20
2023-04-20T18:49:16.614Z,8.10
2023-04-20T18:51:43.210Z,8.00
2023-04-20T18:54:09.777Z,8.00
2023-04-20T18:56:38.518Z,8.00
2023-04-20T18:59:06.070Z,8.00
2023-04-20T19:01:33.035Z,7.90
2023-04-20T19:04:00.357Z,7.90
2023-04-20T19:06:27.945Z,7.80
2023-04-20T19:08:55.847Z,7.90
2023-04-20T19:11:23.057Z,7.80
2023-04-20T19:13:49.665Z,7.90
2023-04-20T19:16:23.395Z,7.80
2023-04-20T19:18:50.419Z,7.80
2023-04-20T19:21:17.175Z,7.70
2023-04-20T19:23:43.811Z,7.70
2023-04-20T19:26:10.963Z,7.60
2023-04-20T19:28:40.320Z,7.40
2023-04-20T19:31:09.240Z,7.20
2023-04-20T19:33:36.209Z,7.20
2023-04-20T19:36:06.459Z,7.20
2023-04-20T19:38:34.728Z,7.20
2023-04-20T19:41:01.939Z,7.20
2023-04-20T19:43:28.520Z,7.20
2023-04-20T19:45:59.408Z,7.20
2023-04-20T19:48:26.897Z,7.20
2023-04-20T19:50:56.554Z,7.20
2023-04-20T19:53:25.032Z,7.20
2023-04-20T19:55:51.712Z,7.20
2023-04-20T19:58:18.320Z,7.20
2023-04-20T20:00:44.924Z,7.30
2023-04-20T20:03:14.786Z,7.30
2023-04-20T20:05:44.758Z,7.30
2023-04-20T20:08:11.608Z,7.40
2023-04-20T20:10:38.263Z,7.40
2023-04-20T20:13:05.028Z,7.40
2023-04-20T20:15:32.299Z,7.40
2023-04-20T20:17:59.428Z,7.50
2023-04-20T20:20:37.729Z,7.50
2023-04-20T20:23:05.025Z,7.50
2023-04-20T20:25:33.351Z,7.50
2023-04-20T20:28:01.879Z,7.50
2023-04-20T20:30:28.626Z,7.50
2023-04-20T20:32:55.610Z,7.50
2023-04-20T20:35:22.524Z,7.50
2023-04-20T20:37:49.143Z,7.40
2023-04-20T20:40:16.424Z,7.50
2023-04-20T20:42:44.855Z,7.50
2023-04-20T20:45:15.534Z,7.50
2023-04-20T20:47:44.147Z,7.50
2023-04-20T20:50:15.382Z,7.40
2023-04-20T20:52:42.285Z,7.40
2023-04-20T20:55:09.403Z,7.30
2023-04-20T20:57:36.364Z,7.30
2023-04-20T21:00:07.898Z,7.20
2023-04-20T21:02:34.926Z,7.10
2023-04-20T21:05:01.992Z,7.10
2023-04-20T21:07:28.558Z,7.00
2023-04-20T21:09:55.365Z,6.90
2023-04-20T21:12:21.974Z,6.80
2023-04-20T21:14:51.250Z,6.70
2023-04-20T21:17:18.648Z,6.60
2023-04-20T21:19:45.498Z,6.60
2023-04-20T21:22:12.199Z,6.50
2023-04-20T21:24:38.820Z,6.40
2023-04-20T21:27:05.488Z,6.40
2023-04-20T21:29:32.109Z,6.40
2023-04-20T21:31:58.743Z,6.40
2023-04-20T21:34:25.437Z,6.30
2023-04-20T21:36:52.037Z,6.40
2023-04-20T21:39:18.939Z,6.40
2023-04-20T21:41:45.751Z,6.40
2023-04-20T21:44:12.397Z,6.40
2023-04-20T21:46:39.503Z,6.30
2023-04-20T21:49:06.257Z,6.30
2023-04-20T21:51:33.161Z,6.20
2023-04-20T21:53:59.735Z,6.20
2023-04-20T21:56:26.347Z,6.20
2023-04-20T21:58:52.975Z,6.30
2023-04-20T22:01:19.553Z,6.30
2023-04-20T22:03:47.531Z,6.40
2023-04-20T22:06:14.416Z,6.50
2023-04-20T22:08:41.837Z,6.50
2023-04-20T22:11:08.876Z,6.50
2023-04-20T22:13:36.226Z,6.50
2023-04-20T22:16:02.997Z,6.50
2023-04-20T22:18:29.751Z,6.50
2023-04-20T22:20:56.346Z,6.60
2023-04-20T22:23:23.056Z,6.60
2023-04-20T22:25:49.790Z,6.50
2023-04-20T22:28:16.684Z,6.50
2023-04-20T22:30:43.408Z,6.50
2023-04-20T22:33:10.006Z,6.60
2023-04-20T22:35:36.769Z,6.50
2023-04-20T22:38:03.604Z,6.40
2023-04-20T22:40:30.483Z,6.30
2023-04-20T22:42:57.103Z,6.30
2023-04-20T22:45:23.978Z,6.30
2023-04-20T22:47:50.847Z,6.30
2023-04-20T22:50:17.809Z,6.30
2023-04-20T22:52:44.497Z,6.30
2023-04-20T22:55:11.273Z,6.20
2023-04-20T22:57:38.924Z,6.10
2023-04-20T23:00:10.703Z,6.10
2023-04-20T23:02:38.068Z,6.20
2023-04-20T23:05:05.634Z,6.30
2023-04-20T23:07:33.051Z,6.30
2023-04-20T23:10:00.147Z,6.30
2023-04-20T23:12:29.537Z,6.40
2023-04-20T23:14:56.576Z,6.40
2023-04-20T23:17:23.365Z,6.50
2023-04-20T23:19:50.887Z,6.50
2023-04-20T23:22:17.639Z,6.50
2023-04-20T23:24:44.279Z,6.50
2023-04-20T23:27:10.932Z,6.50
2023-04-20T23:29:37.534Z,6.50
2023-04-20T23:32:04.356Z,6.50
2023-04-20T23:34:31.022Z,6.50
2023-04-20T23:36:57.778Z,6.50
2023-04-20T23:39:24.391Z,6.50
2023-04-20T23:41:51.021Z,6.50
2023-04-20T23:44:17.646Z,6.40
2023-04-20T23:46:44.224Z,6.40
2023-04-20T23:49:11.247Z,6.40
2023-04-20T23:51:37.823Z,6.40
2023-04-20T23:54:04.525Z,6.40
2023-04-20T23:56:31.327Z,6.40
2023-04-20T23:58:59.084Z,6.40
